sensor_id;sensor_type;location;lat;lon;timestamp;temperature;humidity
45785;DHT22;31489;51.404;5.474;2023-02-01T00:01:54;9.40;74.80
45785;DHT22;31489;51.404;5.474;2023-02-01T00:04:20;9.40;74.60
45785;DHT22;31489;51.404;5.474;2023-02-01T00:06:49;9.40;74.50
45785;DHT22;31489;51.404;5.474;2023-02-01T00:09:15;9.40;74.30
45785;DHT22;31489;51.404;5.474;2023-02-01T00:11:40;9.40;74.30
45785;DHT22;31489;51.404;5.474;2023-02-01T00:14:06;9.30;74.20
45785;DHT22;31489;51.404;5.474;2023-02-01T00:16:31;9.30;73.90
45785;DHT22;31489;51.404;5.474;2023-02-01T00:19:10;9.30;73.90
45785;DHT22;31489;51.404;5.474;2023-02-01T00:21:36;9.30;73.30
45785;DHT22;31489;51.404;5.474;2023-02-01T00:24:02;9.20;73.60
45785;DHT22;31489;51.404;5.474;2023-02-01T00:26:39;9.20;73.40
45785;DHT22;31489;51.404;5.474;2023-02-01T00:29:10;9.20;73.10
45785;DHT22;31489;51.404;5.474;2023-02-01T00:31:36;9.20;73.10
45785;DHT22;31489;51.404;5.474;2023-02-01T00:34:03;9.10;73.30
45785;DHT22;31489;51.404;5.474;2023-02-01T00:36:29;9.10;73.10
45785;DHT22;31489;51.404;5.474;2023-02-01T00:38:55;9.00;73.80
45785;DHT22;31489;51.404;5.474;2023-02-01T00:41:22;9.00;73.30
45785;DHT22;31489;51.404;5.474;2023-02-01T00:43:48;9.00;73.20
45785;DHT22;31489;51.404;5.474;2023-02-01T00:46:16;9.00;73.20
45785;DHT22;31489;51.404;5.474;2023-02-01T00:48:42;8.90;73.10
45785;DHT22;31489;51.404;5.474;2023-02-01T00:51:21;8.90;73.10
45785;DHT22;31489;51.404;5.474;2023-02-01T00:53:47;8.90;72.80
45785;DHT22;31489;51.404;5.474;2023-02-01T00:56:13;8.90;73.10
45785;DHT22;31489;51.404;5.474;2023-02-01T00:58:38;8.80;73.00
45785;DHT22;31489;51.404;5.474;2023-02-01T01:01:19;8.90;73.10
45785;DHT22;31489;51.404;5.474;2023-02-01T01:03:51;8.80;72.80
45785;DHT22;31489;51.404;5.474;2023-02-01T01:06:21;8.80;72.90
45785;DHT22;31489;51.404;5.474;2023-02-01T01:08:47;8.70;72.80
45785;DHT22;31489;51.404;5.474;2023-02-01T01:11:16;8.70;72.90
45785;DHT22;31489;51.404;5.474;2023-02-01T01:13:43;8.70;72.80
45785;DHT22;31489;51.404;5.474;2023-02-01T01:16:11;8.70;72.90
45785;DHT22;31489;51.404;5.474;2023-02-01T01:18:37;8.70;72.90
45785;DHT22;31489;51.404;5.474;2023-02-01T01:21:08;8.70;73.00
45785;DHT22;31489;51.404;5.474;2023-02-01T01:23:35;8.70;72.80
45785;DHT22;31489;51.404;5.474;2023-02-01T01:26:04;8.70;73.00
45785;DHT22;31489;51.404;5.474;2023-02-01T01:28:29;8.70;73.00
45785;DHT22;31489;51.404;5.474;2023-02-01T01:30:57;8.70;73.00
45785;DHT22;31489;51.404;5.474;2023-02-01T01:33:23;8.70;72.90
45785;DHT22;31489;51.404;5.474;2023-02-01T01:35:49;8.60;73.10
45785;DHT22;31489;51.404;5.474;2023-02-01T01:38:14;8.60;73.10
45785;DHT22;31489;51.404;5.474;2023-02-01T01:40:44;8.60;73.20
45785;DHT22;31489;51.404;5.474;2023-02-01T01:43:14;8.60;73.10
45785;DHT22;31489;51.404;5.474;2023-02-01T01:45:41;8.60;73.10
45785;DHT22;31489;51.404;5.474;2023-02-01T01:48:11;8.60;73.30
45785;DHT22;31489;51.404;5.474;2023-02-01T01:50:46;8.60;73.30
45785;DHT22;31489;51.404;5.474;2023-02-01T01:53:17;8.60;73.40
45785;DHT22;31489;51.404;5.474;2023-02-01T01:55:45;8.60;73.40
45785;DHT22;31489;51.404;5.474;2023-02-01T01:58:18;8.50;73.50
45785;DHT22;31489;51.404;5.474;2023-02-01T02:00:45;8.50;73.60
45785;DHT22;31489;51.404;5.474;2023-02-01T02:03:46;8.50;73.70
45785;DHT22;31489;51.404;5.474;2023-02-01T02:06:37;8.50;73.60
45785;DHT22;31489;51.404;5.474;2023-02-01T02:09:04;8.50;73.60
45785;DHT22;31489;51.404;5.474;2023-02-01T02:11:30;8.50;73.90
45785;DHT22;31489;51.404;5.474;2023-02-01T02:13:57;8.40;74.00
45785;DHT22;31489;51.404;5.474;2023-02-01T02:16:33;8.40;74.00
45785;DHT22;31489;51.404;5.474;2023-02-01T02:22:28;8.40;74.10
45785;DHT22;31489;51.404;5.474;2023-02-01T02:25:21;8.30;74.10
45785;DHT22;31489;51.404;5.474;2023-02-01T02:31:04;8.30;74.30
45785;DHT22;31489;51.404;5.474;2023-02-01T02:33:40;8.30;74.50
45785;DHT22;31489;51.404;5.474;2023-02-01T02:44:59;8.30;75.00
45785;DHT22;31489;51.404;5.474;2023-02-01T02:50:34;8.30;75.10
45785;DHT22;31489;51.404;5.474;2023-02-01T02:56:41;8.30;75.20
45785;DHT22;31489;51.404;5.474;2023-02-01T02:59:26;8.30;75.20
45785;DHT22;31489;51.404;5.474;2023-02-01T03:02:13;8.30;75.20
45785;DHT22;31489;51.404;5.474;2023-02-01T03:04:58;8.30;75.20
45785;DHT22;31489;51.404;5.474;2023-02-01T03:10:16;8.30;75.20
45785;DHT22;31489;51.404;5.474;2023-02-01T03:12:43;8.30;75.30
45785;DHT22;31489;51.404;5.474;2023-02-01T03:15:44;8.30;75.40
45785;DHT22;31489;51.404;5.474;2023-02-01T03:18:13;8.30;75.10
45785;DHT22;31489;51.404;5.474;2023-02-01T03:20:45;8.40;75.20
45785;DHT22;31489;51.404;5.474;2023-02-01T03:23:14;8.40;75.20
45785;DHT22;31489;51.404;5.474;2023-02-01T03:25:42;8.40;75.20
45785;DHT22;31489;51.404;5.474;2023-02-01T03:28:08;8.40;75.20
45785;DHT22;31489;51.404;5.474;2023-02-01T03:30:37;8.40;75.20
45785;DHT22;31489;51.404;5.474;2023-02-01T03:33:07;8.40;75.10
45785;DHT22;31489;51.404;5.474;2023-02-01T03:36:31;8.40;75.00
45785;DHT22;31489;51.404;5.474;2023-02-01T03:41:34;8.40;74.90
45785;DHT22;31489;51.404;5.474;2023-02-01T03:49:23;8.40;75.00
45785;DHT22;31489;51.404;5.474;2023-02-01T03:51:51;8.40;75.20
45785;DHT22;31489;51.404;5.474;2023-02-01T03:54:17;8.40;75.20
45785;DHT22;31489;51.404;5.474;2023-02-01T03:56:46;8.40;75.20
45785;DHT22;31489;51.404;5.474;2023-02-01T03:59:13;8.40;75.10
45785;DHT22;31489;51.404;5.474;2023-02-01T04:01:39;8.40;75.10
45785;DHT22;31489;51.404;5.474;2023-02-01T04:04:05;8.40;75.00
45785;DHT22;31489;51.404;5.474;2023-02-01T04:06:31;8.40;75.10
45785;DHT22;31489;51.404;5.474;2023-02-01T04:08:56;8.40;75.00
45785;DHT22;31489;51.404;5.474;2023-02-01T04:11:22;8.50;75.00
45785;DHT22;31489;51.404;5.474;2023-02-01T04:13:47;8.40;74.90
45785;DHT22;31489;51.404;5.474;2023-02-01T04:16:13;8.40;74.90
45785;DHT22;31489;51.404;5.474;2023-02-01T04:18:39;8.40;74.90
45785;DHT22;31489;51.404;5.474;2023-02-01T04:21:04;8.40;74.80
45785;DHT22;31489;51.404;5.474;2023-02-01T04:23:30;8.40;74.80
45785;DHT22;31489;51.404;5.474;2023-02-01T04:26:04;8.40;74.80
45785;DHT22;31489;51.404;5.474;2023-02-01T04:28:30;8.40;74.70
45785;DHT22;31489;51.404;5.474;2023-02-01T04:30:56;8.30;74.80
45785;DHT22;31489;51.404;5.474;2023-02-01T04:33:22;8.30;74.80
45785;DHT22;31489;51.404;5.474;2023-02-01T04:35:48;8.30;74.90
45785;DHT22;31489;51.404;5.474;2023-02-01T04:38:13;8.30;74.90
45785;DHT22;31489;51.404;5.474;2023-02-01T04:40:39;8.20;74.90
45785;DHT22;31489;51.404;5.474;2023-02-01T04:43:04;8.20;75.00
45785;DHT22;31489;51.404;5.474;2023-02-01T04:45:30;8.20;75.00
45785;DHT22;31489;51.404;5.474;2023-02-01T04:47:56;8.20;75.00
45785;DHT22;31489;51.404;5.474;2023-02-01T04:50:22;8.20;75.70
45785;DHT22;31489;51.404;5.474;2023-02-01T04:52:49;8.20;75.20
45785;DHT22;31489;51.404;5.474;2023-02-01T04:55:14;8.10;75.20
45785;DHT22;31489;51.404;5.474;2023-02-01T04:57:43;8.10;75.30
45785;DHT22;31489;51.404;5.474;2023-02-01T05:00:09;8.10;75.20
45785;DHT22;31489;51.404;5.474;2023-02-01T05:02:35;8.10;75.30
45785;DHT22;31489;51.404;5.474;2023-02-01T05:05:02;8.10;75.30
45785;DHT22;31489;51.404;5.474;2023-02-01T05:07:27;8.10;75.40
45785;DHT22;31489;51.404;5.474;2023-02-01T05:09:53;8.10;75.40
45785;DHT22;31489;51.404;5.474;2023-02-01T05:12:18;8.10;75.40
45785;DHT22;31489;51.404;5.474;2023-02-01T05:15:03;8.00;75.30
45785;DHT22;31489;51.404;5.474;2023-02-01T05:17:29;8.00;75.30
45785;DHT22;31489;51.404;5.474;2023-02-01T05:19:54;8.00;75.30
45785;DHT22;31489;51.404;5.474;2023-02-01T05:22:20;8.00;75.40
45785;DHT22;31489;51.404;5.474;2023-02-01T05:24:46;8.00;75.40
45785;DHT22;31489;51.404;5.474;2023-02-01T05:27:11;8.00;75.40
45785;DHT22;31489;51.404;5.474;2023-02-01T05:29:37;8.00;75.40
45785;DHT22;31489;51.404;5.474;2023-02-01T05:32:02;8.00;75.40
45785;DHT22;31489;51.404;5.474;2023-02-01T05:34:28;8.00;75.40
45785;DHT22;31489;51.404;5.474;2023-02-01T05:36:54;8.00;75.40
45785;DHT22;31489;51.404;5.474;2023-02-01T05:39:19;8.00;75.50
45785;DHT22;31489;51.404;5.474;2023-02-01T05:41:45;8.00;75.60
45785;DHT22;31489;51.404;5.474;2023-02-01T05:44:14;8.00;75.60
45785;DHT22;31489;51.404;5.474;2023-02-01T05:46:39;8.00;75.70
45785;DHT22;31489;51.404;5.474;2023-02-01T05:49:05;8.00;75.70
45785;DHT22;31489;51.404;5.474;2023-02-01T05:51:31;8.00;75.90
45785;DHT22;31489;51.404;5.474;2023-02-01T05:53:56;8.00;75.90
45785;DHT22;31489;51.404;5.474;2023-02-01T05:56:22;8.00;75.90
45785;DHT22;31489;51.404;5.474;2023-02-01T05:58:48;8.00;75.90
45785;DHT22;31489;51.404;5.474;2023-02-01T06:01:13;8.00;76.00
45785;DHT22;31489;51.404;5.474;2023-02-01T06:03:39;8.00;75.90
45785;DHT22;31489;51.404;5.474;2023-02-01T06:06:05;8.10;76.00
45785;DHT22;31489;51.404;5.474;2023-02-01T06:08:31;8.10;76.00
45785;DHT22;31489;51.404;5.474;2023-02-01T06:11:01;8.10;76.10
45785;DHT22;31489;51.404;5.474;2023-02-01T06:13:27;8.10;76.10
45785;DHT22;31489;51.404;5.474;2023-02-01T06:15:53;8.10;76.10
45785;DHT22;31489;51.404;5.474;2023-02-01T06:18:19;8.10;76.10
45785;DHT22;31489;51.404;5.474;2023-02-01T06:20:44;8.10;76.10
45785;DHT22;31489;51.404;5.474;2023-02-01T06:23:10;8.10;76.10
45785;DHT22;31489;51.404;5.474;2023-02-01T06:25:36;8.10;76.10
45785;DHT22;31489;51.404;5.474;2023-02-01T06:28:03;8.10;76.10
45785;DHT22;31489;51.404;5.474;2023-02-01T06:30:31;8.10;76.10
45785;DHT22;31489;51.404;5.474;2023-02-01T06:32:57;8.10;76.10
45785;DHT22;31489;51.404;5.474;2023-02-01T06:35:22;8.20;76.30
45785;DHT22;31489;51.404;5.474;2023-02-01T06:37:48;8.20;76.30
45785;DHT22;31489;51.404;5.474;2023-02-01T06:40:14;8.20;76.20
45785;DHT22;31489;51.404;5.474;2023-02-01T06:42:41;8.20;76.10
45785;DHT22;31489;51.404;5.474;2023-02-01T06:45:07;8.20;76.00
45785;DHT22;31489;51.404;5.474;2023-02-01T06:47:33;8.20;76.10
45785;DHT22;31489;51.404;5.474;2023-02-01T06:49:58;8.20;76.10
45785;DHT22;31489;51.404;5.474;2023-02-01T06:52:24;8.20;76.10
45785;DHT22;31489;51.404;5.474;2023-02-01T06:54:49;8.20;76.20
45785;DHT22;31489;51.404;5.474;2023-02-01T06:57:15;8.20;76.20
45785;DHT22;31489;51.404;5.474;2023-02-01T06:59:40;8.20;76.30
45785;DHT22;31489;51.404;5.474;2023-02-01T07:02:10;8.20;76.30
45785;DHT22;31489;51.404;5.474;2023-02-01T07:04:36;8.20;76.30
45785;DHT22;31489;51.404;5.474;2023-02-01T07:07:02;8.20;76.30
45785;DHT22;31489;51.404;5.474;2023-02-01T07:09:27;8.20;76.30
45785;DHT22;31489;51.404;5.474;2023-02-01T07:11:53;8.20;76.20
45785;DHT22;31489;51.404;5.474;2023-02-01T07:14:18;8.20;76.30
45785;DHT22;31489;51.404;5.474;2023-02-01T07:16:44;8.20;76.20
45785;DHT22;31489;51.404;5.474;2023-02-01T07:19:09;8.20;76.20
45785;DHT22;31489;51.404;5.474;2023-02-01T07:21:35;8.20;76.20
45785;DHT22;31489;51.404;5.474;2023-02-01T07:24:01;8.20;76.20
45785;DHT22;31489;51.404;5.474;2023-02-01T07:26:26;8.30;76.20
45785;DHT22;31489;51.404;5.474;2023-02-01T07:28:52;8.20;76.10
45785;DHT22;31489;51.404;5.474;2023-02-01T07:31:19;8.20;76.70
45785;DHT22;31489;51.404;5.474;2023-02-01T07:33:46;8.20;76.10
45785;DHT22;31489;51.404;5.474;2023-02-01T07:36:14;8.10;76.70
45785;DHT22;31489;51.404;5.474;2023-02-01T07:38:40;8.20;76.10
45785;DHT22;31489;51.404;5.474;2023-02-01T07:41:07;8.10;76.10
45785;DHT22;31489;51.404;5.474;2023-02-01T07:43:34;8.10;76.10
45785;DHT22;31489;51.404;5.474;2023-02-01T07:46:00;8.10;76.10
45785;DHT22;31489;51.404;5.474;2023-02-01T07:48:26;8.10;76.70
45785;DHT22;31489;51.404;5.474;2023-02-01T07:51:04;8.10;76.10
45785;DHT22;31489;51.404;5.474;2023-02-01T07:53:31;8.00;76.00
45785;DHT22;31489;51.404;5.474;2023-02-01T07:55:57;8.10;76.20
45785;DHT22;31489;51.404;5.474;2023-02-01T07:58:23;8.10;76.20
45785;DHT22;31489;51.404;5.474;2023-02-01T08:00:49;8.10;76.30
45785;DHT22;31489;51.404;5.474;2023-02-01T08:03:33;8.10;76.30
45785;DHT22;31489;51.404;5.474;2023-02-01T08:05:59;8.10;76.30
45785;DHT22;31489;51.404;5.474;2023-02-01T08:08:24;8.10;76.20
45785;DHT22;31489;51.404;5.474;2023-02-01T08:10:50;8.10;76.30
45785;DHT22;31489;51.404;5.474;2023-02-01T08:13:16;8.00;76.30
45785;DHT22;31489;51.404;5.474;2023-02-01T08:15:41;8.00;76.30
45785;DHT22;31489;51.404;5.474;2023-02-01T08:18:10;8.00;76.40
45785;DHT22;31489;51.404;5.474;2023-02-01T08:20:36;8.00;76.40
45785;DHT22;31489;51.404;5.474;2023-02-01T08:23:08;8.00;76.50
45785;DHT22;31489;51.404;5.474;2023-02-01T08:25:34;8.10;76.50
45785;DHT22;31489;51.404;5.474;2023-02-01T08:28:01;8.10;77.10
45785;DHT22;31489;51.404;5.474;2023-02-01T08:30:27;8.10;76.50
45785;DHT22;31489;51.404;5.474;2023-02-01T08:32:53;8.10;76.40
45785;DHT22;31489;51.404;5.474;2023-02-01T08:35:18;8.10;76.50
45785;DHT22;31489;51.404;5.474;2023-02-01T08:37:44;8.10;76.50
45785;DHT22;31489;51.404;5.474;2023-02-01T08:40:10;8.10;76.50
45785;DHT22;31489;51.404;5.474;2023-02-01T08:42:38;8.10;76.50
45785;DHT22;31489;51.404;5.474;2023-02-01T08:45:22;8.20;76.60
45785;DHT22;31489;51.404;5.474;2023-02-01T08:47:50;8.20;76.50
45785;DHT22;31489;51.404;5.474;2023-02-01T08:50:16;8.20;76.70
45785;DHT22;31489;51.404;5.474;2023-02-01T08:52:42;8.20;76.70
45785;DHT22;31489;51.404;5.474;2023-02-01T08:55:08;8.30;76.80
45785;DHT22;31489;51.404;5.474;2023-02-01T08:57:34;8.40;76.80
45785;DHT22;31489;51.404;5.474;2023-02-01T09:00:00;8.40;76.80
45785;DHT22;31489;51.404;5.474;2023-02-01T09:02:26;8.40;76.70
45785;DHT22;31489;51.404;5.474;2023-02-01T09:04:52;8.50;76.80
45785;DHT22;31489;51.404;5.474;2023-02-01T09:07:18;8.50;76.80
45785;DHT22;31489;51.404;5.474;2023-02-01T09:09:44;8.50;76.80
45785;DHT22;31489;51.404;5.474;2023-02-01T09:12:10;8.60;76.80
45785;DHT22;31489;51.404;5.474;2023-02-01T09:14:36;8.60;76.70
45785;DHT22;31489;51.404;5.474;2023-02-01T09:17:02;8.70;76.80
45785;DHT22;31489;51.404;5.474;2023-02-01T09:19:28;8.70;76.70
45785;DHT22;31489;51.404;5.474;2023-02-01T09:21:57;8.70;76.50
45785;DHT22;31489;51.404;5.474;2023-02-01T09:24:25;8.80;76.40
45785;DHT22;31489;51.404;5.474;2023-02-01T09:26:51;8.80;76.60
45785;DHT22;31489;51.404;5.474;2023-02-01T09:29:17;8.90;76.50
45785;DHT22;31489;51.404;5.474;2023-02-01T09:31:43;8.90;76.50
45785;DHT22;31489;51.404;5.474;2023-02-01T09:34:09;9.00;76.50
45785;DHT22;31489;51.404;5.474;2023-02-01T09:36:34;9.10;76.50
45785;DHT22;31489;51.404;5.474;2023-02-01T09:39:00;9.10;76.40
45785;DHT22;31489;51.404;5.474;2023-02-01T09:46:58;9.30;76.10
45785;DHT22;31489;51.404;5.474;2023-02-01T09:49:30;9.40;76.10
45785;DHT22;31489;51.404;5.474;2023-02-01T09:52:02;9.50;76.00
45785;DHT22;31489;51.404;5.474;2023-02-01T09:54:41;9.50;75.60
45785;DHT22;31489;51.404;5.474;2023-02-01T09:57:22;9.60;75.60
45785;DHT22;31489;51.404;5.474;2023-02-01T10:00:00;9.70;75.30
45785;DHT22;31489;51.404;5.474;2023-02-01T10:02:31;9.70;74.70
45785;DHT22;31489;51.404;5.474;2023-02-01T10:05:04;9.80;75.40
45785;DHT22;31489;51.404;5.474;2023-02-01T10:10:21;9.90;75.00
45785;DHT22;31489;51.404;5.474;2023-02-01T10:12:59;10.00;75.60
45785;DHT22;31489;51.404;5.474;2023-02-01T10:26:38;11.20;74.00
45785;DHT22;31489;51.404;5.474;2023-02-01T10:29:24;11.50;74.40
45785;DHT22;31489;51.404;5.474;2023-02-01T10:31:54;11.70;72.30
45785;DHT22;31489;51.404;5.474;2023-02-01T10:34:30;11.80;72.90
45785;DHT22;31489;51.404;5.474;2023-02-01T10:39:48;12.10;71.40
45785;DHT22;31489;51.404;5.474;2023-02-01T10:42:24;12.10;70.80
45785;DHT22;31489;51.404;5.474;2023-02-01T10:44:50;12.00;70.20
45785;DHT22;31489;51.404;5.474;2023-02-01T10:47:18;12.00;69.70
45785;DHT22;31489;51.404;5.474;2023-02-01T10:52:42;11.90;69.20
45785;DHT22;31489;51.404;5.474;2023-02-01T10:58:07;11.70;68.40
45785;DHT22;31489;51.404;5.474;2023-02-01T11:00:47;11.60;69.40
45785;DHT22;31489;51.404;5.474;2023-02-01T11:03:22;11.60;69.10
45785;DHT22;31489;51.404;5.474;2023-02-01T11:05:58;11.60;68.90
45785;DHT22;31489;51.404;5.474;2023-02-01T11:08:26;11.60;69.40
45785;DHT22;31489;51.404;5.474;2023-02-01T11:11:00;11.60;69.70
45785;DHT22;31489;51.404;5.474;2023-02-01T11:13:30;11.70;69.40
45785;DHT22;31489;51.404;5.474;2023-02-01T11:15:57;11.70;69.40
45785;DHT22;31489;51.404;5.474;2023-02-01T11:18:29;11.70;69.10
45785;DHT22;31489;51.404;5.474;2023-02-01T11:20:55;11.70;68.80
45785;DHT22;31489;51.404;5.474;2023-02-01T11:23:25;11.60;68.30
45785;DHT22;31489;51.404;5.474;2023-02-01T11:25:54;11.60;68.00
45785;DHT22;31489;51.404;5.474;2023-02-01T11:28:23;11.50;68.30
45785;DHT22;31489;51.404;5.474;2023-02-01T11:30:51;11.50;68.10
45785;DHT22;31489;51.404;5.474;2023-02-01T11:33:20;11.50;68.00
45785;DHT22;31489;51.404;5.474;2023-02-01T11:35:51;11.40;68.00
45785;DHT22;31489;51.404;5.474;2023-02-01T11:40:48;11.30;68.00
45785;DHT22;31489;51.404;5.474;2023-02-01T11:43:25;11.30;67.70
45785;DHT22;31489;51.404;5.474;2023-02-01T11:45:59;11.20;67.70
45785;DHT22;31489;51.404;5.474;2023-02-01T11:48:28;11.20;68.20
45785;DHT22;31489;51.404;5.474;2023-02-01T11:51:08;11.20;67.60
45785;DHT22;31489;51.404;5.474;2023-02-01T11:56:56;11.20;67.80
45785;DHT22;31489;51.404;5.474;2023-02-01T12:05:31;11.20;67.50
45785;DHT22;31489;51.404;5.474;2023-02-01T12:14:23;11.20;68.30
45785;DHT22;31489;51.404;5.474;2023-02-01T12:30:29;11.20;67.80
45785;DHT22;31489;51.404;5.474;2023-02-01T12:44:52;11.20;68.20
45785;DHT22;31489;51.404;5.474;2023-02-01T12:50:04;11.20;68.10
45785;DHT22;31489;51.404;5.474;2023-02-01T12:52:46;11.20;68.50
45785;DHT22;31489;51.404;5.474;2023-02-01T12:55:36;11.20;68.10
45785;DHT22;31489;51.404;5.474;2023-02-01T12:58:09;11.20;68.00
45785;DHT22;31489;51.404;5.474;2023-02-01T13:00:47;11.20;68.20
45785;DHT22;31489;51.404;5.474;2023-02-01T13:09:00;11.30;68.80
45785;DHT22;31489;51.404;5.474;2023-02-01T13:14:10;11.30;68.70
45785;DHT22;31489;51.404;5.474;2023-02-01T13:16:48;11.30;68.30
45785;DHT22;31489;51.404;5.474;2023-02-01T13:19:51;11.30;68.60
45785;DHT22;31489;51.404;5.474;2023-02-01T13:24:48;11.40;68.70
45785;DHT22;31489;51.404;5.474;2023-02-01T13:27:16;11.40;68.50
45785;DHT22;31489;51.404;5.474;2023-02-01T13:29:51;11.40;68.40
45785;DHT22;31489;51.404;5.474;2023-02-01T13:40:53;11.40;68.50
45785;DHT22;31489;51.404;5.474;2023-02-01T13:43:29;11.50;69.00
45785;DHT22;31489;51.404;5.474;2023-02-01T13:46:02;11.50;68.60
45785;DHT22;31489;51.404;5.474;2023-02-01T13:48:40;11.60;68.30
45785;DHT22;31489;51.404;5.474;2023-02-01T13:51:10;11.60;68.50
45785;DHT22;31489;51.404;5.474;2023-02-01T13:53:38;11.60;68.70
45785;DHT22;31489;51.404;5.474;2023-02-01T13:56:18;11.60;68.50
45785;DHT22;31489;51.404;5.474;2023-02-01T13:58:46;11.70;68.00
45785;DHT22;31489;51.404;5.474;2023-02-01T14:06:38;11.70;67.80
45785;DHT22;31489;51.404;5.474;2023-02-01T14:11:55;11.70;67.80
45785;DHT22;31489;51.404;5.474;2023-02-01T14:19:32;11.60;67.80
45785;DHT22;31489;51.404;5.474;2023-02-01T14:22:44;11.60;67.50
45785;DHT22;31489;51.404;5.474;2023-02-01T14:24:50;11.50;68.30
45785;DHT22;31489;51.404;5.474;2023-02-01T14:27:21;11.50;67.90
45785;DHT22;31489;51.404;5.474;2023-02-01T14:29:53;11.50;68.10
45785;DHT22;31489;51.404;5.474;2023-02-01T14:32:40;11.50;68.10
45785;DHT22;31489;51.404;5.474;2023-02-01T14:35:20;11.50;67.90
45785;DHT22;31489;51.404;5.474;2023-02-01T14:37:51;11.50;68.20
45785;DHT22;31489;51.404;5.474;2023-02-01T14:40:23;11.40;68.20
45785;DHT22;31489;51.404;5.474;2023-02-01T14:42:51;11.40;68.20
45785;DHT22;31489;51.404;5.474;2023-02-01T15:01:33;11.40;68.30
45785;DHT22;31489;51.404;5.474;2023-02-01T15:09:16;11.40;68.70
45785;DHT22;31489;51.404;5.474;2023-02-01T15:14:40;11.40;68.80
45785;DHT22;31489;51.404;5.474;2023-02-01T15:17:28;11.40;68.80
45785;DHT22;31489;51.404;5.474;2023-02-01T15:20:26;11.40;68.80
45785;DHT22;31489;51.404;5.474;2023-02-01T15:22:57;11.40;68.60
45785;DHT22;31489;51.404;5.474;2023-02-01T15:25:29;11.30;68.80
45785;DHT22;31489;51.404;5.474;2023-02-01T15:27:55;11.40;69.00
45785;DHT22;31489;51.404;5.474;2023-02-01T15:30:23;11.40;69.10
45785;DHT22;31489;51.404;5.474;2023-02-01T15:32:52;11.40;69.10
45785;DHT22;31489;51.404;5.474;2023-02-01T15:35:44;11.30;68.90
45785;DHT22;31489;51.404;5.474;2023-02-01T15:40:59;11.30;68.90
45785;DHT22;31489;51.404;5.474;2023-02-01T15:43:27;11.40;69.40
45785;DHT22;31489;51.404;5.474;2023-02-01T15:46:00;11.30;69.10
45785;DHT22;31489;51.404;5.474;2023-02-01T15:48:32;11.40;69.20
45785;DHT22;31489;51.404;5.474;2023-02-01T15:51:00;11.30;69.20
45785;DHT22;31489;51.404;5.474;2023-02-01T15:53:26;11.30;69.40
45785;DHT22;31489;51.404;5.474;2023-02-01T15:56:00;11.30;69.40
45785;DHT22;31489;51.404;5.474;2023-02-01T15:58:27;11.30;69.40
45785;DHT22;31489;51.404;5.474;2023-02-01T16:00:56;11.30;69.40
45785;DHT22;31489;51.404;5.474;2023-02-01T16:03:39;11.30;69.40
45785;DHT22;31489;51.404;5.474;2023-02-01T16:06:28;11.30;69.60
45785;DHT22;31489;51.404;5.474;2023-02-01T16:09:09;11.20;69.30
45785;DHT22;31489;51.404;5.474;2023-02-01T16:14:13;11.20;69.50
45785;DHT22;31489;51.404;5.474;2023-02-01T16:16:39;11.20;69.70
45785;DHT22;31489;51.404;5.474;2023-02-01T16:19:04;11.20;69.70
45785;DHT22;31489;51.404;5.474;2023-02-01T16:21:30;11.20;69.60
45785;DHT22;31489;51.404;5.474;2023-02-01T16:23:55;11.10;69.50
45785;DHT22;31489;51.404;5.474;2023-02-01T16:26:32;11.10;69.60
45785;DHT22;31489;51.404;5.474;2023-02-01T16:28:58;11.20;69.70
45785;DHT22;31489;51.404;5.474;2023-02-01T16:31:29;11.10;69.70
45785;DHT22;31489;51.404;5.474;2023-02-01T16:33:56;11.20;69.50
45785;DHT22;31489;51.404;5.474;2023-02-01T16:36:22;11.10;69.70
45785;DHT22;31489;51.404;5.474;2023-02-01T16:38:48;11.10;69.80
45785;DHT22;31489;51.404;5.474;2023-02-01T16:41:17;11.10;69.70
45785;DHT22;31489;51.404;5.474;2023-02-01T16:43:43;11.10;69.70
45785;DHT22;31489;51.404;5.474;2023-02-01T16:46:21;11.20;69.70
45785;DHT22;31489;51.404;5.474;2023-02-01T16:48:58;11.20;69.40
45785;DHT22;31489;51.404;5.474;2023-02-01T16:51:26;11.20;69.50
45785;DHT22;31489;51.404;5.474;2023-02-01T16:53:53;11.20;69.60
45785;DHT22;31489;51.404;5.474;2023-02-01T16:56:31;11.20;69.50
45785;DHT22;31489;51.404;5.474;2023-02-01T16:59:01;11.20;69.80
45785;DHT22;31489;51.404;5.474;2023-02-01T17:01:27;11.20;69.60
45785;DHT22;31489;51.404;5.474;2023-02-01T17:03:53;11.20;69.60
45785;DHT22;31489;51.404;5.474;2023-02-01T17:06:24;11.20;69.70
45785;DHT22;31489;51.404;5.474;2023-02-01T17:08:54;11.30;69.60
45785;DHT22;31489;51.404;5.474;2023-02-01T17:11:30;11.20;69.50
45785;DHT22;31489;51.404;5.474;2023-02-01T17:14:15;11.20;69.60
45785;DHT22;31489;51.404;5.474;2023-02-01T17:16:44;11.30;69.30
45785;DHT22;31489;51.404;5.474;2023-02-01T17:19:19;11.20;69.50
45785;DHT22;31489;51.404;5.474;2023-02-01T17:21:49;11.20;69.40
45785;DHT22;31489;51.404;5.474;2023-02-01T17:24:19;11.20;69.60
45785;DHT22;31489;51.404;5.474;2023-02-01T17:26:48;11.20;69.60
45785;DHT22;31489;51.404;5.474;2023-02-01T17:29:16;11.20;69.50
45785;DHT22;31489;51.404;5.474;2023-02-01T17:31:47;11.20;69.50
45785;DHT22;31489;51.404;5.474;2023-02-01T17:34:15;11.30;69.40
45785;DHT22;31489;51.404;5.474;2023-02-01T17:36:45;11.20;69.50
45785;DHT22;31489;51.404;5.474;2023-02-01T17:39:11;11.20;69.50
45785;DHT22;31489;51.404;5.474;2023-02-01T17:42:00;11.20;69.50
45785;DHT22;31489;51.404;5.474;2023-02-01T17:44:26;11.20;69.50
45785;DHT22;31489;51.404;5.474;2023-02-01T17:46:51;11.20;69.60
45785;DHT22;31489;51.404;5.474;2023-02-01T17:49:17;11.20;69.60
45785;DHT22;31489;51.404;5.474;2023-02-01T17:51:43;11.20;69.70
45785;DHT22;31489;51.404;5.474;2023-02-01T17:54:15;11.20;69.70
45785;DHT22;31489;51.404;5.474;2023-02-01T17:56:45;11.20;69.50
45785;DHT22;31489;51.404;5.474;2023-02-01T17:59:13;11.20;69.70
45785;DHT22;31489;51.404;5.474;2023-02-01T18:01:42;11.20;70.30
45785;DHT22;31489;51.404;5.474;2023-02-01T18:04:12;11.20;69.70
45785;DHT22;31489;51.404;5.474;2023-02-01T18:06:40;11.20;69.70
45785;DHT22;31489;51.404;5.474;2023-02-01T18:09:06;11.20;69.90
45785;DHT22;31489;51.404;5.474;2023-02-01T18:11:32;11.20;69.80
45785;DHT22;31489;51.404;5.474;2023-02-01T18:13:58;11.20;69.90
45785;DHT22;31489;51.404;5.474;2023-02-01T18:18:59;11.30;69.90
45785;DHT22;31489;51.404;5.474;2023-02-01T18:21:47;11.30;70.00
45785;DHT22;31489;51.404;5.474;2023-02-01T18:24:20;11.30;69.70
45785;DHT22;31489;51.404;5.474;2023-02-01T18:26:47;11.30;69.90
45785;DHT22;31489;51.404;5.474;2023-02-01T18:29:13;11.30;69.90
45785;DHT22;31489;51.404;5.474;2023-02-01T18:31:44;11.30;69.90
45785;DHT22;31489;51.404;5.474;2023-02-01T18:34:10;11.30;69.80
45785;DHT22;31489;51.404;5.474;2023-02-01T18:36:43;11.30;70.00
45785;DHT22;31489;51.404;5.474;2023-02-01T18:39:14;11.30;70.10
45785;DHT22;31489;51.404;5.474;2023-02-01T18:41:44;11.30;70.00
45785;DHT22;31489;51.404;5.474;2023-02-01T18:44:17;11.30;70.00
45785;DHT22;31489;51.404;5.474;2023-02-01T18:46:43;11.40;70.10
45785;DHT22;31489;51.404;5.474;2023-02-01T18:49:09;11.40;70.20